UAL839 KLAX-YSSY
Flight info
| Callsign | UAL839 |
|---|---|
| Flight time | N/A |
| Altitude | 32000 |
| Route | SUMMMR2 FICKY B581 CAMOS/N0480F340 B581 WACOS/N0473F360 B581 BIDNA/N0467F380 B581 NN G224 NF B450 LHI H258 RIKNI N774 MARLN |
| Aircraft | B772/H-SDE2E3FGHIJ5LORVWXY/LB1D1 |
Departure
| Time | N/A |
|---|---|
| Airport | Los Angeles International Airport (KLAX) |
Arrival
| Time | 2026-04-26 16:44 |
|---|---|
| Airport | Sydney Kingsford Smith International Airport (YSSY) |
| Time | Latitude | Longitude | Altitude | Speed | Heading |
|---|---|---|---|---|---|
| 2026-04-26 10:49 | -7.48804 | -170.74158 | 35866 ft | 521 kts | 227° |
| 2026-04-26 10:50 | -7.52861 | -170.78632 | 35866 ft | 521 kts | 227° |
| 2026-04-26 10:50 | -7.58585 | -170.84948 | 36135 ft | 520 kts | 227° |
| 2026-04-26 10:51 | -7.61021 | -170.87636 | 36342 ft | 518 kts | 227° |
| 2026-04-26 10:51 | -7.65884 | -170.93004 | 36578 ft | 518 kts | 227° |
| 2026-04-26 10:51 | -7.68311 | -170.95685 | 36754 ft | 516 kts | 227° |
| 2026-04-26 10:52 | -7.70729 | -170.98355 | 36889 ft | 516 kts | 227° |
| 2026-04-26 10:52 | -7.73145 | -171.01024 | 37003 ft | 515 kts | 227° |
| 2026-04-26 10:52 | -7.75528 | -171.03657 | 37132 ft | 515 kts | 227° |
| 2026-04-26 10:52 | -7.77939 | -171.06321 | 37331 ft | 513 kts | 227° |
| 2026-04-26 10:53 | -7.80342 | -171.08977 | 37465 ft | 512 kts | 227° |
| 2026-04-26 10:53 | -7.85147 | -171.14290 | 37670 ft | 512 kts | 227° |
| 2026-04-26 10:54 | -7.89937 | -171.19588 | 37855 ft | 511 kts | 227° |
| 2026-04-26 10:54 | -7.92341 | -171.22247 | 37865 ft | 511 kts | 227° |
| 2026-04-26 10:54 | -7.96324 | -171.26655 | 37867 ft | 511 kts | 227° |
| 2026-04-26 10:55 | -8.01114 | -171.31957 | 37867 ft | 511 kts | 227° |
| 2026-04-26 10:55 | -8.05906 | -171.37264 | 37867 ft | 511 kts | 227° |
| 2026-04-26 10:56 | -8.10694 | -171.42567 | 37867 ft | 511 kts | 227° |
| 2026-04-26 10:56 | -8.15485 | -171.47877 | 37880 ft | 511 kts | 227° |
| 2026-04-26 10:57 | -8.20269 | -171.53181 | 37882 ft | 511 kts | 227° |
| 2026-04-26 10:57 | -8.25061 | -171.58495 | 37881 ft | 511 kts | 227° |
| 2026-04-26 10:58 | -8.29843 | -171.63801 | 37882 ft | 511 kts | 227° |
| 2026-04-26 10:58 | -8.34623 | -171.69106 | 37882 ft | 511 kts | 227° |
| 2026-04-26 10:59 | -8.39403 | -171.74414 | 37882 ft | 511 kts | 227° |
| 2026-04-26 10:59 | -8.44151 | -171.79688 | 37882 ft | 511 kts | 227° |
| 2026-04-26 11:00 | -8.48934 | -171.85003 | 37882 ft | 511 kts | 227° |
| 2026-04-26 11:00 | -8.53712 | -171.90315 | 37882 ft | 511 kts | 227° |
| 2026-04-26 11:01 | -8.58494 | -171.95633 | 37882 ft | 511 kts | 227° |
| 2026-04-26 11:01 | -8.63276 | -172.00953 | 37882 ft | 511 kts | 227° |
| 2026-04-26 11:02 | -8.68045 | -172.06262 | 37892 ft | 510 kts | 227° |
| 2026-04-26 11:02 | -8.72808 | -172.11565 | 37892 ft | 509 kts | 227° |
| 2026-04-26 11:03 | -8.77567 | -172.16866 | 37892 ft | 509 kts | 227° |
| 2026-04-26 11:03 | -8.82326 | -172.22170 | 37892 ft | 509 kts | 227° |
| 2026-04-26 11:04 | -8.87083 | -172.27473 | 37892 ft | 509 kts | 227° |
| 2026-04-26 11:04 | -8.91811 | -172.32747 | 37892 ft | 509 kts | 227° |
| 2026-04-26 11:05 | -8.96559 | -172.38044 | 37892 ft | 509 kts | 227° |
| 2026-04-26 11:05 | -9.01309 | -172.43347 | 37892 ft | 508 kts | 227° |
| 2026-04-26 11:06 | -9.06055 | -172.48647 | 37891 ft | 508 kts | 226° |
| 2026-04-26 11:06 | -9.10805 | -172.53954 | 37891 ft | 508 kts | 226° |
| 2026-04-26 11:07 | -9.15548 | -172.59256 | 37891 ft | 508 kts | 226° |
| 2026-04-26 11:07 | -9.20288 | -172.64556 | 37891 ft | 508 kts | 226° |
| 2026-04-26 11:08 | -9.25027 | -172.69856 | 37891 ft | 508 kts | 226° |
| 2026-04-26 11:08 | -9.29770 | -172.75158 | 37891 ft | 507 kts | 227° |
| 2026-04-26 11:09 | -9.34505 | -172.80461 | 37891 ft | 507 kts | 227° |
| 2026-04-26 11:09 | -9.39200 | -172.85725 | 37890 ft | 507 kts | 227° |
| 2026-04-26 11:10 | -9.43921 | -172.91018 | 37890 ft | 506 kts | 226° |
| 2026-04-26 11:10 | -9.48638 | -172.96307 | 37890 ft | 506 kts | 226° |
| 2026-04-26 11:11 | -9.53364 | -173.01599 | 37890 ft | 506 kts | 226° |
| 2026-04-26 11:11 | -9.58079 | -173.06887 | 37890 ft | 505 kts | 226° |
| 2026-04-26 11:12 | -9.62788 | -173.12172 | 37890 ft | 505 kts | 226° |
| 2026-04-26 11:12 | -9.67490 | -173.17453 | 37890 ft | 504 kts | 226° |
| 2026-04-26 11:13 | -9.72190 | -173.22723 | 37890 ft | 504 kts | 226° |
| 2026-04-26 11:13 | -9.76885 | -173.27987 | 37890 ft | 503 kts | 226° |
| 2026-04-26 11:14 | -9.81579 | -173.33257 | 37890 ft | 503 kts | 226° |
| 2026-04-26 11:14 | -9.86264 | -173.38522 | 37890 ft | 502 kts | 226° |
| 2026-04-26 11:15 | -9.90941 | -173.43780 | 37887 ft | 502 kts | 226° |
| 2026-04-26 11:15 | -9.95588 | -173.49008 | 37887 ft | 501 kts | 226° |
| 2026-04-26 11:16 | -10.00261 | -173.54268 | 37887 ft | 501 kts | 226° |
| 2026-04-26 11:16 | -10.04922 | -173.59516 | 37887 ft | 500 kts | 226° |
| 2026-04-26 11:17 | -10.09577 | -173.64760 | 37887 ft | 500 kts | 226° |
| 2026-04-26 11:17 | -10.14236 | -173.70011 | 37887 ft | 500 kts | 226° |
| 2026-04-26 11:18 | -10.18893 | -173.75262 | 37887 ft | 500 kts | 226° |
| 2026-04-26 11:18 | -10.23543 | -173.80509 | 37887 ft | 500 kts | 226° |
| 2026-04-26 11:19 | -10.28195 | -173.85759 | 37887 ft | 500 kts | 226° |
| 2026-04-26 11:19 | -10.32846 | -173.91011 | 37884 ft | 500 kts | 226° |
| 2026-04-26 11:20 | -10.36710 | -173.95377 | 37884 ft | 500 kts | 226° |
| 2026-04-26 11:20 | -10.42141 | -174.01515 | 37883 ft | 500 kts | 226° |
| 2026-04-26 11:21 | -10.46758 | -174.06735 | 37883 ft | 499 kts | 226° |
| 2026-04-26 11:21 | -10.51394 | -174.11980 | 37884 ft | 499 kts | 226° |
| 2026-04-26 11:22 | -10.56025 | -174.17223 | 37884 ft | 499 kts | 226° |
| 2026-04-26 11:22 | -10.60664 | -174.22477 | 37884 ft | 499 kts | 226° |
| 2026-04-26 11:23 | -10.65301 | -174.27731 | 37884 ft | 499 kts | 226° |
| 2026-04-26 11:23 | -10.69931 | -174.32979 | 37884 ft | 499 kts | 226° |
| 2026-04-26 11:24 | -10.74565 | -174.38235 | 37884 ft | 499 kts | 226° |
| 2026-04-26 11:24 | -10.79195 | -174.43489 | 37884 ft | 498 kts | 226° |
| 2026-04-26 11:25 | -10.83819 | -174.48738 | 37883 ft | 498 kts | 227° |
| 2026-04-26 11:25 | -10.88448 | -174.53996 | 37884 ft | 499 kts | 227° |
| 2026-04-26 11:26 | -10.93074 | -174.59253 | 37885 ft | 498 kts | 227° |
| 2026-04-26 11:26 | -10.97674 | -174.64484 | 37885 ft | 499 kts | 227° |
| 2026-04-26 11:27 | -11.02297 | -174.69743 | 37885 ft | 499 kts | 227° |
| 2026-04-26 11:27 | -11.06927 | -174.75012 | 37883 ft | 499 kts | 227° |
| 2026-04-26 11:28 | -11.11546 | -174.80272 | 37879 ft | 499 kts | 227° |
| 2026-04-26 11:28 | -11.16172 | -174.85544 | 37880 ft | 498 kts | 227° |
| 2026-04-26 11:29 | -11.20787 | -174.90804 | 37880 ft | 498 kts | 227° |
| 2026-04-26 11:29 | -11.25399 | -174.96064 | 37880 ft | 498 kts | 227° |
| 2026-04-26 11:30 | -11.29236 | -175.00443 | 37880 ft | 498 kts | 227° |
| 2026-04-26 11:30 | -11.34635 | -175.06606 | 37880 ft | 498 kts | 227° |
| 2026-04-26 11:31 | -11.39242 | -175.11870 | 37880 ft | 498 kts | 227° |
| 2026-04-26 11:31 | -11.43850 | -175.17136 | 37875 ft | 498 kts | 227° |
| 2026-04-26 11:32 | -11.48453 | -175.22399 | 37872 ft | 497 kts | 227° |
| 2026-04-26 11:32 | -11.53053 | -175.27662 | 37872 ft | 497 kts | 227° |
| 2026-04-26 11:33 | -11.57653 | -175.32928 | 37872 ft | 497 kts | 227° |
| 2026-04-26 11:33 | -11.62217 | -175.38155 | 37872 ft | 497 kts | 227° |
| 2026-04-26 11:34 | -11.66815 | -175.43425 | 37873 ft | 497 kts | 227° |
| 2026-04-26 11:34 | -11.71416 | -175.48701 | 37873 ft | 497 kts | 227° |
| 2026-04-26 11:35 | -11.76012 | -175.53973 | 37873 ft | 497 kts | 227° |
| 2026-04-26 11:35 | -11.79827 | -175.58352 | 37872 ft | 496 kts | 227° |
| 2026-04-26 11:36 | -11.85181 | -175.64501 | 37873 ft | 495 kts | 227° |
| 2026-04-26 11:36 | -11.89761 | -175.69763 | 37872 ft | 496 kts | 227° |
| 2026-04-26 11:37 | -11.94345 | -175.75034 | 37872 ft | 495 kts | 227° |
| 2026-04-26 11:37 | -11.98921 | -175.80298 | 37873 ft | 495 kts | 227° |
| 2026-04-26 11:38 | -12.03496 | -175.85564 | 37873 ft | 496 kts | 228° |
| 2026-04-26 11:38 | -12.08049 | -175.90807 | 37873 ft | 496 kts | 228° |
| 2026-04-26 11:39 | -12.12626 | -175.96082 | 37873 ft | 496 kts | 228° |
| 2026-04-26 11:39 | -12.17203 | -176.01359 | 37873 ft | 496 kts | 228° |
| 2026-04-26 11:40 | -12.21782 | -176.06640 | 37873 ft | 496 kts | 228° |
| 2026-04-26 11:40 | -12.26356 | -176.11920 | 37873 ft | 496 kts | 228° |
| 2026-04-26 11:42 | -12.43882 | -176.32178 | 37873 ft | 496 kts | 228° |
| 2026-04-26 11:43 | -12.48451 | -176.37466 | 37872 ft | 496 kts | 228° |
| 2026-04-26 11:43 | -12.53029 | -176.42767 | 37873 ft | 497 kts | 228° |
| 2026-04-26 11:44 | -12.57608 | -176.48075 | 37873 ft | 497 kts | 228° |
| 2026-04-26 11:44 | -12.62184 | -176.53379 | 37873 ft | 497 kts | 228° |
| 2026-04-26 11:45 | -12.66753 | -176.58681 | 37873 ft | 497 kts | 228° |
| 2026-04-26 11:45 | -12.71325 | -176.63989 | 37873 ft | 497 kts | 228° |
| 2026-04-26 11:46 | -12.75869 | -176.69266 | 37873 ft | 497 kts | 228° |
| 2026-04-26 11:46 | -12.80443 | -176.74583 | 37873 ft | 497 kts | 228° |
| 2026-04-26 11:47 | -12.85021 | -176.79894 | 37873 ft | 497 kts | 228° |
| 2026-04-26 11:47 | -12.89597 | -176.85221 | 37873 ft | 497 kts | 228° |
| 2026-04-26 11:48 | -12.94161 | -176.90541 | 37873 ft | 497 kts | 228° |
| 2026-04-26 11:48 | -12.98734 | -176.95874 | 37873 ft | 498 kts | 228° |
| 2026-04-26 11:49 | -13.03312 | -177.01215 | 37873 ft | 498 kts | 228° |
| 2026-04-26 11:49 | -13.07882 | -177.06554 | 37873 ft | 498 kts | 228° |
| 2026-04-26 11:50 | -13.12455 | -177.11905 | 37873 ft | 498 kts | 229° |
| 2026-04-26 11:50 | -13.17017 | -177.17249 | 37873 ft | 498 kts | 229° |
| 2026-04-26 11:51 | -13.21549 | -177.22562 | 37873 ft | 498 kts | 229° |
| 2026-04-26 11:51 | -13.26140 | -177.27939 | 37873 ft | 498 kts | 229° |
| 2026-04-26 11:52 | -13.30684 | -177.33250 | 37873 ft | 498 kts | 229° |
| 2026-04-26 11:52 | -13.35246 | -177.38594 | 37873 ft | 498 kts | 229° |
| 2026-04-26 11:53 | -13.39803 | -177.43941 | 37872 ft | 497 kts | 229° |
| 2026-04-26 11:54 | -13.46642 | -177.51971 | 37872 ft | 498 kts | 229° |
| 2026-04-26 11:54 | -13.51197 | -177.57325 | 37872 ft | 498 kts | 229° |
| 2026-04-26 11:55 | -13.55754 | -177.62685 | 37872 ft | 498 kts | 229° |
| 2026-04-26 11:55 | -13.60305 | -177.68041 | 37871 ft | 497 kts | 229° |
| 2026-04-26 11:56 | -13.64853 | -177.73397 | 37872 ft | 497 kts | 229° |
| 2026-04-26 11:56 | -13.69399 | -177.78753 | 37872 ft | 497 kts | 229° |
| 2026-04-26 11:57 | -13.73945 | -177.84114 | 37871 ft | 497 kts | 229° |
| 2026-04-26 11:57 | -13.78488 | -177.89474 | 37871 ft | 497 kts | 229° |
| 2026-04-26 11:58 | -13.83024 | -177.94829 | 37870 ft | 497 kts | 229° |
| 2026-04-26 11:58 | -13.87563 | -178.00193 | 37871 ft | 497 kts | 230° |
| 2026-04-26 11:59 | -13.92076 | -178.05527 | 37874 ft | 497 kts | 230° |
| 2026-04-26 11:59 | -13.96609 | -178.10890 | 37877 ft | 497 kts | 230° |
| 2026-04-26 12:00 | -14.01144 | -178.16258 | 37876 ft | 497 kts | 230° |
| 2026-04-26 12:00 | -14.05680 | -178.21631 | 37877 ft | 497 kts | 230° |
| 2026-04-26 12:01 | -14.10218 | -178.27010 | 37877 ft | 497 kts | 230° |
| 2026-04-26 12:01 | -14.14749 | -178.32384 | 37877 ft | 497 kts | 230° |
| 2026-04-26 12:02 | -14.19285 | -178.37768 | 37876 ft | 497 kts | 230° |
| 2026-04-26 12:02 | -14.23809 | -178.43141 | 37876 ft | 496 kts | 230° |
| 2026-04-26 12:03 | -14.28335 | -178.48519 | 37892 ft | 497 kts | 230° |
| 2026-04-26 12:03 | -14.32861 | -178.53902 | 37892 ft | 497 kts | 230° |
| 2026-04-26 12:04 | -14.37363 | -178.59259 | 37892 ft | 497 kts | 230° |
| 2026-04-26 12:04 | -14.41886 | -178.64646 | 37892 ft | 497 kts | 230° |
| 2026-04-26 12:05 | -14.46410 | -178.70037 | 37893 ft | 497 kts | 230° |
| 2026-04-26 12:05 | -14.50931 | -178.75429 | 37894 ft | 497 kts | 230° |
| 2026-04-26 12:06 | -14.55454 | -178.80825 | 37894 ft | 497 kts | 230° |
| 2026-04-26 12:06 | -14.59969 | -178.86217 | 37894 ft | 497 kts | 230° |
| 2026-04-26 12:07 | -14.64488 | -178.91616 | 37894 ft | 497 kts | 230° |
| 2026-04-26 12:07 | -14.69005 | -178.97017 | 37895 ft | 497 kts | 231° |
| 2026-04-26 12:08 | -14.73522 | -179.02422 | 37895 ft | 497 kts | 231° |
| 2026-04-26 12:08 | -14.78036 | -179.07828 | 37895 ft | 497 kts | 231° |
| 2026-04-26 12:09 | -14.82549 | -179.13235 | 37895 ft | 496 kts | 231° |
| 2026-04-26 12:09 | -14.87058 | -179.18643 | 37896 ft | 496 kts | 231° |
| 2026-04-26 12:10 | -14.91532 | -179.24010 | 37896 ft | 496 kts | 231° |
| 2026-04-26 12:10 | -14.96037 | -179.29420 | 37896 ft | 496 kts | 231° |
| 2026-04-26 12:11 | -15.00539 | -179.34830 | 37897 ft | 495 kts | 231° |
| 2026-04-26 12:11 | -15.05028 | -179.40227 | 37897 ft | 495 kts | 231° |
| 2026-04-26 12:12 | -15.09525 | -179.45630 | 37938 ft | 494 kts | 231° |
| 2026-04-26 12:12 | -15.14009 | -179.51023 | 37942 ft | 494 kts | 231° |
| 2026-04-26 12:13 | -15.18488 | -179.56426 | 37942 ft | 494 kts | 231° |
| 2026-04-26 12:13 | -15.22955 | -179.61819 | 37943 ft | 493 kts | 231° |
| 2026-04-26 12:14 | -15.27391 | -179.67175 | 37943 ft | 493 kts | 231° |
| 2026-04-26 12:14 | -15.31858 | -179.72560 | 37944 ft | 492 kts | 231° |
| 2026-04-26 12:15 | -15.36328 | -179.77937 | 37926 ft | 493 kts | 231° |
| 2026-04-26 12:15 | -15.40807 | -179.83333 | 37923 ft | 493 kts | 231° |
| 2026-04-26 12:16 | -15.45279 | -179.88729 | 37924 ft | 493 kts | 232° |
| 2026-04-26 12:16 | -15.49754 | -179.94132 | 37924 ft | 494 kts | 232° |
| 2026-04-26 12:17 | -15.54233 | -179.99524 | 37924 ft | 494 kts | 232° |
| 2026-04-26 12:17 | -15.58718 | 179.95074 | 37899 ft | 494 kts | 232° |
| 2026-04-26 12:18 | -15.63196 | 179.89668 | 37898 ft | 494 kts | 232° |
| 2026-04-26 12:18 | -15.67673 | 179.84256 | 37898 ft | 494 kts | 232° |
| 2026-04-26 12:19 | -15.72128 | 179.78866 | 37897 ft | 494 kts | 232° |
| 2026-04-26 12:19 | -15.76599 | 179.73452 | 37897 ft | 494 kts | 232° |
| 2026-04-26 12:20 | -15.81071 | 179.68033 | 37897 ft | 494 kts | 232° |
| 2026-04-26 12:20 | -15.85543 | 179.62609 | 37898 ft | 494 kts | 232° |
| 2026-04-26 12:21 | -15.90020 | 179.57176 | 37898 ft | 495 kts | 232° |
| 2026-04-26 12:21 | -15.94492 | 179.51745 | 37899 ft | 494 kts | 232° |
| 2026-04-26 12:22 | -15.98939 | 179.46340 | 37898 ft | 494 kts | 232° |
| 2026-04-26 12:22 | -16.03404 | 179.40909 | 37899 ft | 494 kts | 232° |
| 2026-04-26 12:23 | -16.07864 | 179.35479 | 37900 ft | 493 kts | 232° |
| 2026-04-26 12:23 | -16.12324 | 179.30047 | 37900 ft | 493 kts | 232° |
| 2026-04-26 12:24 | -16.16782 | 179.24612 | 37900 ft | 493 kts | 232° |
| 2026-04-26 12:24 | -16.21233 | 179.19181 | 37899 ft | 493 kts | 232° |
| 2026-04-26 12:25 | -16.27868 | 179.11078 | 37899 ft | 493 kts | 232° |
| 2026-04-26 12:25 | -16.32316 | 179.05642 | 37899 ft | 493 kts | 232° |
| 2026-04-26 12:26 | -16.36765 | 179.00198 | 37900 ft | 493 kts | 232° |
| 2026-04-26 12:26 | -16.41215 | 178.94766 | 37900 ft | 493 kts | 232° |
| 2026-04-26 12:27 | -16.45653 | 178.89329 | 37900 ft | 493 kts | 233° |
| 2026-04-26 12:27 | -16.50087 | 178.83885 | 37900 ft | 493 kts | 233° |
| 2026-04-26 12:28 | -16.54524 | 178.78433 | 37901 ft | 493 kts | 233° |
| 2026-04-26 12:28 | -16.58959 | 178.72982 | 37901 ft | 493 kts | 233° |
| 2026-04-26 12:29 | -16.63370 | 178.67510 | 37902 ft | 493 kts | 233° |
| 2026-04-26 12:30 | -16.69237 | 178.60212 | 37902 ft | 493 kts | 233° |
| 2026-04-26 12:30 | -16.73639 | 178.54731 | 37909 ft | 492 kts | 233° |
| 2026-04-26 12:31 | -16.80949 | 178.45622 | 37917 ft | 492 kts | 233° |
| 2026-04-26 12:31 | -16.85357 | 178.40153 | 37918 ft | 492 kts | 233° |
| 2026-04-26 12:32 | -16.89046 | 178.35560 | 37918 ft | 493 kts | 233° |
| 2026-04-26 12:33 | -16.95641 | 178.27333 | 37919 ft | 492 kts | 233° |
| 2026-04-26 12:33 | -17.00001 | 178.21886 | 37919 ft | 492 kts | 233° |
| 2026-04-26 12:34 | -17.04392 | 178.16403 | 37920 ft | 492 kts | 233° |
| 2026-04-26 12:34 | -17.08777 | 178.10928 | 37921 ft | 491 kts | 233° |
| 2026-04-26 12:35 | -17.13156 | 178.05439 | 37922 ft | 491 kts | 233° |
| 2026-04-26 12:35 | -17.17533 | 177.99946 | 37923 ft | 491 kts | 233° |
| 2026-04-26 12:36 | -17.21910 | 177.94451 | 37924 ft | 492 kts | 233° |
| 2026-04-26 12:36 | -17.26290 | 177.88952 | 37925 ft | 492 kts | 233° |
| 2026-04-26 12:37 | -17.30671 | 177.83456 | 37927 ft | 492 kts | 233° |
| 2026-04-26 12:37 | -17.35022 | 177.77988 | 37928 ft | 492 kts | 234° |
| 2026-04-26 12:38 | -17.39389 | 177.72493 | 37929 ft | 491 kts | 234° |
| 2026-04-26 12:38 | -17.43756 | 177.66995 | 37930 ft | 490 kts | 234° |
| 2026-04-26 12:39 | -17.48138 | 177.61513 | 37932 ft | 491 kts | 233° |
| 2026-04-26 12:39 | -17.52510 | 177.56012 | 37933 ft | 491 kts | 234° |
| 2026-04-26 12:40 | -17.56871 | 177.50506 | 37934 ft | 491 kts | 234° |
| 2026-04-26 12:40 | -17.61238 | 177.44988 | 37934 ft | 491 kts | 234° |
| 2026-04-26 12:41 | -17.65834 | 177.39689 | 37937 ft | 494 kts | 225° |
| 2026-04-26 12:41 | -17.71303 | 177.35265 | 37935 ft | 498 kts | 219° |
| 2026-04-26 12:42 | -17.77047 | 177.31170 | 37935 ft | 500 kts | 218° |
| 2026-04-26 12:42 | -17.82792 | 177.27039 | 37934 ft | 500 kts | 218° |
| 2026-04-26 12:43 | -17.88524 | 177.22878 | 37934 ft | 500 kts | 218° |
| 2026-04-26 12:43 | -17.94215 | 177.18740 | 37933 ft | 500 kts | 219° |
| 2026-04-26 12:44 | -17.99939 | 177.14593 | 37933 ft | 500 kts | 218° |
| 2026-04-26 12:44 | -18.05663 | 177.10431 | 37932 ft | 499 kts | 219° |
| 2026-04-26 12:45 | -18.11364 | 177.06271 | 37935 ft | 499 kts | 219° |
| 2026-04-26 12:45 | -18.17074 | 177.02101 | 37934 ft | 499 kts | 219° |
| 2026-04-26 12:46 | -18.22775 | 176.97936 | 37934 ft | 499 kts | 219° |
| 2026-04-26 12:46 | -18.28479 | 176.93766 | 37934 ft | 500 kts | 219° |
| 2026-04-26 12:47 | -18.34185 | 176.89591 | 37936 ft | 500 kts | 219° |
| 2026-04-26 12:47 | -18.39892 | 176.85408 | 37934 ft | 499 kts | 219° |
| 2026-04-26 12:48 | -18.45567 | 176.81245 | 37934 ft | 499 kts | 219° |
| 2026-04-26 12:48 | -18.51270 | 176.77059 | 37933 ft | 500 kts | 219° |
| 2026-04-26 12:49 | -18.56990 | 176.72872 | 37933 ft | 500 kts | 219° |
| 2026-04-26 12:49 | -18.62701 | 176.68684 | 37933 ft | 500 kts | 219° |
| 2026-04-26 12:50 | -18.68413 | 176.64486 | 37933 ft | 500 kts | 219° |
| 2026-04-26 12:50 | -18.74116 | 176.60290 | 37933 ft | 500 kts | 219° |
| 2026-04-26 12:51 | -18.79832 | 176.56093 | 37932 ft | 500 kts | 219° |
| 2026-04-26 12:51 | -18.85542 | 176.51884 | 37932 ft | 501 kts | 219° |
| 2026-04-26 12:52 | -18.91258 | 176.47663 | 37932 ft | 501 kts | 219° |
| 2026-04-26 12:52 | -18.96973 | 176.43439 | 37931 ft | 502 kts | 219° |
| 2026-04-26 12:53 | -19.02667 | 176.39230 | 37931 ft | 502 kts | 219° |
| 2026-04-26 12:53 | -19.08393 | 176.34986 | 37931 ft | 502 kts | 219° |
| 2026-04-26 12:54 | -19.14121 | 176.30734 | 37931 ft | 503 kts | 219° |
| 2026-04-26 12:54 | -19.19849 | 176.26476 | 37930 ft | 504 kts | 219° |
| 2026-04-26 12:55 | -19.25602 | 176.22197 | 37929 ft | 505 kts | 219° |
| 2026-04-26 12:55 | -19.31348 | 176.17922 | 37929 ft | 506 kts | 219° |
| 2026-04-26 12:56 | -19.37116 | 176.13642 | 37929 ft | 506 kts | 219° |
| 2026-04-26 12:56 | -19.42881 | 176.09351 | 37929 ft | 507 kts | 219° |
| 2026-04-26 12:57 | -19.48660 | 176.05042 | 37928 ft | 508 kts | 219° |
| 2026-04-26 12:57 | -19.54449 | 176.00734 | 37928 ft | 508 kts | 219° |
| 2026-04-26 12:58 | -19.63139 | 175.94235 | 37927 ft | 511 kts | 219° |
| 2026-04-26 12:58 | -19.68952 | 175.89882 | 37926 ft | 511 kts | 219° |
| 2026-04-26 12:59 | -19.74716 | 175.85565 | 37925 ft | 511 kts | 219° |
| 2026-04-26 12:59 | -19.80519 | 175.81210 | 37925 ft | 510 kts | 219° |
| 2026-04-26 13:00 | -19.86312 | 175.76856 | 37925 ft | 510 kts | 219° |
| 2026-04-26 13:00 | -19.92110 | 175.72491 | 37924 ft | 511 kts | 219° |
| 2026-04-26 13:01 | -19.97908 | 175.68120 | 37924 ft | 510 kts | 219° |
| 2026-04-26 13:01 | -20.03703 | 175.63749 | 37923 ft | 511 kts | 219° |
| 2026-04-26 13:02 | -20.09514 | 175.59385 | 37923 ft | 511 kts | 219° |
| 2026-04-26 13:02 | -20.15322 | 175.55010 | 37923 ft | 511 kts | 219° |
| 2026-04-26 13:03 | -20.21117 | 175.50636 | 37922 ft | 511 kts | 220° |
| 2026-04-26 13:03 | -20.26911 | 175.46257 | 37921 ft | 510 kts | 220° |
| 2026-04-26 13:04 | -20.32662 | 175.41906 | 37921 ft | 510 kts | 220° |
| 2026-04-26 13:04 | -20.38449 | 175.37523 | 37920 ft | 510 kts | 220° |
| 2026-04-26 13:05 | -20.44235 | 175.33137 | 37925 ft | 510 kts | 220° |
| 2026-04-26 13:05 | -20.50009 | 175.28756 | 37927 ft | 510 kts | 220° |
| 2026-04-26 13:06 | -20.55785 | 175.24369 | 37927 ft | 509 kts | 221° |
| 2026-04-26 13:06 | -20.61553 | 175.19984 | 37927 ft | 509 kts | 221° |
| 2026-04-26 13:07 | -20.67331 | 175.15587 | 37926 ft | 510 kts | 221° |
| 2026-04-26 13:07 | -20.73103 | 175.11190 | 37926 ft | 509 kts | 221° |
| 2026-04-26 13:08 | -20.78872 | 175.06792 | 37925 ft | 509 kts | 221° |
| 2026-04-26 13:08 | -20.84630 | 175.02397 | 37925 ft | 509 kts | 221° |
| 2026-04-26 13:09 | -20.90354 | 174.98025 | 37925 ft | 508 kts | 221° |
| 2026-04-26 13:09 | -20.96098 | 174.93633 | 37925 ft | 508 kts | 221° |
| 2026-04-26 13:10 | -21.01846 | 174.89234 | 37924 ft | 508 kts | 222° |
| 2026-04-26 13:10 | -21.07594 | 174.84831 | 37924 ft | 508 kts | 222° |
| 2026-04-26 13:11 | -21.13341 | 174.80423 | 37923 ft | 508 kts | 222° |
| 2026-04-26 13:11 | -21.19080 | 174.76019 | 37924 ft | 508 kts | 222° |
| 2026-04-26 13:12 | -21.24828 | 174.71602 | 37924 ft | 508 kts | 222° |
| 2026-04-26 13:12 | -21.30571 | 174.67185 | 37924 ft | 507 kts | 223° |
| 2026-04-26 13:13 | -21.36305 | 174.62771 | 37923 ft | 506 kts | 223° |
| 2026-04-26 13:13 | -21.41984 | 174.58395 | 37923 ft | 506 kts | 223° |
| 2026-04-26 13:14 | -21.47707 | 174.53980 | 37923 ft | 506 kts | 223° |
| 2026-04-26 13:14 | -21.53421 | 174.49568 | 37923 ft | 506 kts | 223° |
| 2026-04-26 13:15 | -21.59133 | 174.45153 | 37923 ft | 506 kts | 223° |
| 2026-04-26 13:15 | -21.63919 | 174.41451 | 37922 ft | 506 kts | 223° |
| 2026-04-26 13:16 | -21.70558 | 174.36310 | 37922 ft | 506 kts | 224° |
| 2026-04-26 13:16 | -21.76267 | 174.31884 | 37921 ft | 505 kts | 224° |
| 2026-04-26 13:17 | -21.83863 | 174.25997 | 37922 ft | 505 kts | 224° |
| 2026-04-26 13:18 | -21.92417 | 174.19352 | 37921 ft | 505 kts | 224° |
| 2026-04-26 13:19 | -22.00960 | 174.12693 | 37920 ft | 505 kts | 224° |
| 2026-04-26 13:19 | -22.06646 | 174.08260 | 37920 ft | 505 kts | 224° |
| 2026-04-26 13:20 | -22.12338 | 174.03817 | 37920 ft | 505 kts | 224° |
| 2026-04-26 13:20 | -22.18032 | 173.99369 | 37920 ft | 505 kts | 224° |
| 2026-04-26 13:21 | -22.23717 | 173.94921 | 37947 ft | 505 kts | 224° |
| 2026-04-26 13:21 | -22.29366 | 173.90494 | 37957 ft | 505 kts | 224° |
| 2026-04-26 13:22 | -22.35049 | 173.86035 | 37958 ft | 505 kts | 224° |
| 2026-04-26 13:22 | -22.40739 | 173.81593 | 37959 ft | 505 kts | 224° |
| 2026-04-26 13:23 | -22.46430 | 173.77139 | 37959 ft | 504 kts | 225° |
| 2026-04-26 13:23 | -22.52099 | 173.72690 | 37960 ft | 503 kts | 225° |
| 2026-04-26 13:24 | -22.57762 | 173.68239 | 37960 ft | 503 kts | 225° |
| 2026-04-26 13:24 | -22.63422 | 173.63785 | 37960 ft | 502 kts | 225° |
| 2026-04-26 13:25 | -22.69064 | 173.59341 | 37961 ft | 501 kts | 225° |
| 2026-04-26 13:25 | -22.74706 | 173.54891 | 37962 ft | 501 kts | 225° |
| 2026-04-26 13:26 | -22.80348 | 173.50437 | 37963 ft | 501 kts | 225° |
| 2026-04-26 13:26 | -22.85984 | 173.45983 | 37964 ft | 501 kts | 226° |
| 2026-04-26 13:27 | -22.91619 | 173.41525 | 37964 ft | 501 kts | 226° |
| 2026-04-26 13:27 | -22.97247 | 173.37068 | 37965 ft | 501 kts | 226° |
| 2026-04-26 13:28 | -23.02885 | 173.32597 | 37966 ft | 501 kts | 226° |
| 2026-04-26 13:28 | -23.08472 | 173.28164 | 37967 ft | 501 kts | 226° |
| 2026-04-26 13:29 | -23.14099 | 173.23693 | 37968 ft | 501 kts | 226° |
| 2026-04-26 13:29 | -23.19720 | 173.19223 | 37969 ft | 501 kts | 226° |
| 2026-04-26 13:30 | -23.25336 | 173.14751 | 37969 ft | 500 kts | 226° |
| 2026-04-26 13:30 | -23.30948 | 173.10278 | 37970 ft | 499 kts | 226° |
| 2026-04-26 13:31 | -23.36545 | 173.05813 | 37971 ft | 499 kts | 226° |
| 2026-04-26 13:31 | -23.42143 | 173.01342 | 37973 ft | 499 kts | 226° |
| 2026-04-26 13:32 | -23.47732 | 172.96873 | 37974 ft | 498 kts | 227° |
| 2026-04-26 13:32 | -23.53318 | 172.92401 | 37974 ft | 498 kts | 227° |
| 2026-04-26 13:33 | -23.58906 | 172.87924 | 37976 ft | 498 kts | 227° |
| 2026-04-26 13:33 | -23.64487 | 172.83447 | 37977 ft | 498 kts | 227° |
| 2026-04-26 13:34 | -23.70035 | 172.78991 | 37978 ft | 498 kts | 227° |
| 2026-04-26 13:34 | -23.75612 | 172.74508 | 37979 ft | 498 kts | 227° |
| 2026-04-26 13:35 | -23.81182 | 172.70025 | 37980 ft | 498 kts | 227° |
| 2026-04-26 13:35 | -23.86756 | 172.65535 | 37982 ft | 498 kts | 227° |
| 2026-04-26 13:36 | -23.92324 | 172.61044 | 37984 ft | 497 kts | 227° |
| 2026-04-26 13:36 | -23.97892 | 172.56548 | 37985 ft | 497 kts | 227° |
| 2026-04-26 13:37 | -24.03456 | 172.52051 | 37986 ft | 497 kts | 227° |
| 2026-04-26 13:37 | -24.08996 | 172.47568 | 37987 ft | 497 kts | 227° |
| 2026-04-26 13:38 | -24.14553 | 172.43065 | 37989 ft | 497 kts | 228° |
| 2026-04-26 13:38 | -24.20126 | 172.38546 | 37991 ft | 498 kts | 228° |
| 2026-04-26 13:39 | -24.25696 | 172.34023 | 37993 ft | 498 kts | 228° |
| 2026-04-26 13:39 | -24.31274 | 172.29490 | 37994 ft | 498 kts | 228° |
| 2026-04-26 13:40 | -24.36839 | 172.24961 | 37996 ft | 498 kts | 228° |
| 2026-04-26 13:40 | -24.42407 | 172.20425 | 37998 ft | 498 kts | 228° |
| 2026-04-26 13:41 | -24.47964 | 172.15893 | 38000 ft | 498 kts | 228° |
| 2026-04-26 13:41 | -24.53523 | 172.11354 | 38001 ft | 498 kts | 228° |
| 2026-04-26 13:42 | -24.59081 | 172.06811 | 38003 ft | 498 kts | 228° |
| 2026-04-26 13:42 | -24.64607 | 172.02289 | 38005 ft | 498 kts | 228° |
| 2026-04-26 13:43 | -24.70159 | 171.97740 | 38007 ft | 497 kts | 228° |
| 2026-04-26 13:43 | -24.75707 | 171.93197 | 38009 ft | 496 kts | 228° |
| 2026-04-26 13:44 | -24.81240 | 171.88665 | 38011 ft | 496 kts | 228° |
| 2026-04-26 13:44 | -24.86786 | 171.84099 | 38013 ft | 498 kts | 228° |
| 2026-04-26 13:45 | -24.92329 | 171.79529 | 38015 ft | 498 kts | 228° |
| 2026-04-26 13:45 | -24.97853 | 171.74974 | 38018 ft | 497 kts | 228° |
| 2026-04-26 13:46 | -25.03355 | 171.70329 | 38078 ft | 495 kts | 230° |
| 2026-04-26 13:46 | -25.06008 | 171.67943 | 38257 ft | 492 kts | 231° |
| 2026-04-26 13:46 | -25.08651 | 171.65527 | 38410 ft | 492 kts | 231° |
| 2026-04-26 13:46 | -25.11286 | 171.63126 | 38551 ft | 492 kts | 231° |
| 2026-04-26 13:47 | -25.13927 | 171.60729 | 38703 ft | 491 kts | 231° |
| 2026-04-26 13:47 | -25.16567 | 171.58339 | 38832 ft | 491 kts | 231° |
| 2026-04-26 13:47 | -25.19211 | 171.55949 | 38959 ft | 491 kts | 231° |
| 2026-04-26 13:47 | -25.21850 | 171.53564 | 39086 ft | 491 kts | 231° |
| 2026-04-26 13:48 | -25.24490 | 171.51179 | 39212 ft | 490 kts | 231° |
| 2026-04-26 13:48 | -25.27136 | 171.48791 | 39332 ft | 490 kts | 230° |
| 2026-04-26 13:48 | -25.29780 | 171.46422 | 39512 ft | 488 kts | 230° |
| 2026-04-26 13:48 | -25.32412 | 171.44060 | 39668 ft | 487 kts | 230° |
| 2026-04-26 13:49 | -25.35042 | 171.41694 | 39748 ft | 488 kts | 230° |
| 2026-04-26 13:49 | -25.40311 | 171.36944 | 39887 ft | 489 kts | 230° |
| 2026-04-26 13:50 | -25.45577 | 171.32187 | 40189 ft | 486 kts | 230° |
| 2026-04-26 13:50 | -25.48192 | 171.29821 | 40294 ft | 486 kts | 230° |
| 2026-04-26 13:50 | -25.50811 | 171.27451 | 40361 ft | 486 kts | 230° |
| 2026-04-26 13:51 | -25.56040 | 171.22713 | 40558 ft | 486 kts | 230° |
| 2026-04-26 13:51 | -25.58619 | 171.20375 | 40706 ft | 484 kts | 230° |
| 2026-04-26 13:51 | -25.61201 | 171.18032 | 41123 ft | 476 kts | 230° |
| 2026-04-26 13:51 | -25.63738 | 171.15729 | 41593 ft | 467 kts | 231° |
| 2026-04-26 13:52 | -25.66227 | 171.13467 | 42005 ft | 459 kts | 231° |
| 2026-04-26 13:52 | -25.71097 | 171.09040 | 42052 ft | 448 kts | 231° |
| 2026-04-26 13:53 | -25.75879 | 171.04688 | 42050 ft | 442 kts | 231° |
| 2026-04-26 13:53 | -25.80610 | 171.00377 | 42052 ft | 440 kts | 231° |
| 2026-04-26 13:54 | -25.85346 | 170.96058 | 42055 ft | 441 kts | 231° |
| 2026-04-26 13:54 | -25.90099 | 170.91718 | 42057 ft | 443 kts | 231° |
| 2026-04-26 13:55 | -25.96458 | 170.85905 | 42060 ft | 443 kts | 231° |
| 2026-04-26 13:56 | -26.04369 | 170.78660 | 42064 ft | 443 kts | 231° |
| 2026-04-26 13:56 | -26.09133 | 170.74291 | 42066 ft | 445 kts | 231° |
| 2026-04-26 13:57 | -26.13914 | 170.69902 | 42068 ft | 445 kts | 231° |
| 2026-04-26 13:57 | -26.18693 | 170.65510 | 42070 ft | 446 kts | 231° |
| 2026-04-26 13:58 | -26.23476 | 170.61110 | 42072 ft | 446 kts | 231° |
| 2026-04-26 13:58 | -26.28255 | 170.56708 | 42075 ft | 446 kts | 231° |
| 2026-04-26 13:59 | -26.33033 | 170.52303 | 42067 ft | 446 kts | 231° |
| 2026-04-26 13:59 | -26.37809 | 170.47893 | 42068 ft | 446 kts | 231° |
| 2026-04-26 14:00 | -26.47367 | 170.39056 | 42072 ft | 446 kts | 231° |
| 2026-04-26 14:01 | -26.52116 | 170.34657 | 42074 ft | 446 kts | 231° |
| 2026-04-26 14:01 | -26.56896 | 170.30224 | 42076 ft | 447 kts | 231° |
| 2026-04-26 14:02 | -26.61678 | 170.25786 | 42078 ft | 447 kts | 231° |
| 2026-04-26 14:02 | -26.66455 | 170.21346 | 42080 ft | 447 kts | 231° |
| 2026-04-26 14:03 | -26.71237 | 170.16897 | 42082 ft | 447 kts | 231° |
| 2026-04-26 14:03 | -26.75209 | 170.13198 | 42083 ft | 448 kts | 231° |
| 2026-04-26 14:04 | -26.79999 | 170.08733 | 42085 ft | 449 kts | 231° |
| 2026-04-26 14:04 | -26.84798 | 170.04254 | 42087 ft | 449 kts | 231° |
| 2026-04-26 14:05 | -26.89593 | 169.99773 | 42089 ft | 449 kts | 231° |
| 2026-04-26 14:05 | -26.94394 | 169.95281 | 42091 ft | 449 kts | 230° |
| 2026-04-26 14:06 | -26.99188 | 169.90791 | 42093 ft | 449 kts | 230° |
| 2026-04-26 14:06 | -27.03977 | 169.86301 | 42095 ft | 449 kts | 230° |
| 2026-04-26 14:07 | -27.08774 | 169.81798 | 42097 ft | 449 kts | 230° |
| 2026-04-26 14:07 | -27.13570 | 169.77290 | 42099 ft | 449 kts | 230° |
| 2026-04-26 14:08 | -27.18369 | 169.72775 | 42089 ft | 451 kts | 230° |
| 2026-04-26 14:08 | -27.23151 | 169.68271 | 42090 ft | 451 kts | 230° |
| 2026-04-26 14:09 | -27.27962 | 169.63734 | 42093 ft | 451 kts | 230° |
| 2026-04-26 14:09 | -27.32766 | 169.59198 | 42095 ft | 451 kts | 230° |
| 2026-04-26 14:10 | -27.37572 | 169.54655 | 42098 ft | 451 kts | 230° |
| 2026-04-26 14:10 | -27.42381 | 169.50103 | 42100 ft | 451 kts | 230° |
| 2026-04-26 14:11 | -27.49586 | 169.43274 | 42103 ft | 451 kts | 230° |
| 2026-04-26 14:11 | -27.54382 | 169.38722 | 42105 ft | 451 kts | 230° |
| 2026-04-26 14:12 | -27.59172 | 169.34170 | 42108 ft | 450 kts | 230° |
| 2026-04-26 14:12 | -27.63952 | 169.29622 | 42110 ft | 450 kts | 230° |
| 2026-04-26 14:13 | -27.71126 | 169.22786 | 42113 ft | 450 kts | 230° |
| 2026-04-26 14:14 | -27.75903 | 169.18228 | 42115 ft | 450 kts | 230° |
| 2026-04-26 14:14 | -27.80686 | 169.13657 | 42117 ft | 450 kts | 230° |
| 2026-04-26 14:15 | -27.85469 | 169.09083 | 42120 ft | 451 kts | 230° |
| 2026-04-26 14:15 | -27.90254 | 169.04500 | 42122 ft | 451 kts | 230° |
| 2026-04-26 14:16 | -27.95005 | 168.99945 | 42124 ft | 451 kts | 230° |
| 2026-04-26 14:16 | -27.99789 | 168.95351 | 42125 ft | 451 kts | 230° |
| 2026-04-26 14:17 | -28.04610 | 168.90717 | 42127 ft | 452 kts | 230° |
| 2026-04-26 14:17 | -28.09376 | 168.86131 | 42128 ft | 453 kts | 229° |
| 2026-04-26 14:18 | -28.14178 | 168.81505 | 42129 ft | 454 kts | 229° |
| 2026-04-26 14:18 | -28.18986 | 168.76866 | 42131 ft | 454 kts | 229° |
| 2026-04-26 14:19 | -28.23801 | 168.72215 | 42132 ft | 454 kts | 229° |
| 2026-04-26 14:19 | -28.28609 | 168.67566 | 42133 ft | 454 kts | 229° |
| 2026-04-26 14:20 | -28.33420 | 168.62908 | 42134 ft | 454 kts | 229° |
| 2026-04-26 14:20 | -28.38231 | 168.58243 | 42135 ft | 454 kts | 229° |
| 2026-04-26 14:21 | -28.43033 | 168.53582 | 42136 ft | 454 kts | 229° |
| 2026-04-26 14:21 | -28.47800 | 168.48949 | 42137 ft | 454 kts | 229° |
| 2026-04-26 14:22 | -28.52600 | 168.44279 | 42138 ft | 454 kts | 229° |
| 2026-04-26 14:22 | -28.57407 | 168.39595 | 42138 ft | 455 kts | 229° |
| 2026-04-26 14:23 | -28.62213 | 168.34907 | 42139 ft | 455 kts | 229° |
| 2026-04-26 14:23 | -28.67024 | 168.30208 | 42139 ft | 456 kts | 229° |
| 2026-04-26 14:24 | -28.71835 | 168.25503 | 42140 ft | 456 kts | 229° |
| 2026-04-26 14:24 | -28.76648 | 168.20790 | 42140 ft | 456 kts | 229° |
| 2026-04-26 14:25 | -28.81467 | 168.16076 | 42141 ft | 456 kts | 229° |
| 2026-04-26 14:25 | -28.86285 | 168.11362 | 42141 ft | 457 kts | 229° |
| 2026-04-26 14:26 | -28.91109 | 168.06614 | 42141 ft | 458 kts | 229° |
| 2026-04-26 14:26 | -28.95938 | 168.01851 | 42141 ft | 459 kts | 229° |
| 2026-04-26 14:27 | -29.00769 | 167.97083 | 42141 ft | 459 kts | 229° |
| 2026-04-26 14:27 | -29.05162 | 167.91932 | 42142 ft | 446 kts | 242° |
| 2026-04-26 14:27 | -29.06657 | 167.88884 | 42144 ft | 436 kts | 253° |
| 2026-04-26 14:28 | -29.07713 | 167.85647 | 42142 ft | 433 kts | 258° |
| 2026-04-26 14:28 | -29.09466 | 167.79089 | 42141 ft | 430 kts | 259° |
| 2026-04-26 14:29 | -29.11276 | 167.72614 | 42142 ft | 430 kts | 257° |
| 2026-04-26 14:29 | -29.13210 | 167.66145 | 42142 ft | 430 kts | 257° |
| 2026-04-26 14:30 | -29.15190 | 167.59677 | 42142 ft | 431 kts | 257° |
| 2026-04-26 14:30 | -29.17201 | 167.53212 | 42142 ft | 432 kts | 256° |
| 2026-04-26 14:31 | -29.19241 | 167.46733 | 42142 ft | 433 kts | 256° |
| 2026-04-26 14:31 | -29.21269 | 167.40237 | 42141 ft | 433 kts | 256° |
| 2026-04-26 14:32 | -29.23289 | 167.33740 | 42141 ft | 433 kts | 256° |
| 2026-04-26 14:32 | -29.25309 | 167.27220 | 42141 ft | 434 kts | 256° |
| 2026-04-26 14:33 | -29.27311 | 167.20743 | 42141 ft | 435 kts | 256° |
| 2026-04-26 14:33 | -29.29327 | 167.14209 | 42141 ft | 435 kts | 256° |
| 2026-04-26 14:34 | -29.31342 | 167.07663 | 42141 ft | 436 kts | 256° |
| 2026-04-26 14:34 | -29.33355 | 167.01107 | 42141 ft | 436 kts | 256° |
| 2026-04-26 14:35 | -29.35366 | 166.94547 | 42141 ft | 437 kts | 256° |
| 2026-04-26 14:35 | -29.37381 | 166.87961 | 42141 ft | 437 kts | 256° |
| 2026-04-26 14:36 | -29.39393 | 166.81373 | 42141 ft | 438 kts | 256° |
| 2026-04-26 14:36 | -29.41402 | 166.74778 | 42141 ft | 438 kts | 256° |
| 2026-04-26 14:37 | -29.43413 | 166.68166 | 42140 ft | 439 kts | 256° |
| 2026-04-26 14:37 | -29.45410 | 166.61586 | 42140 ft | 439 kts | 256° |
| 2026-04-26 14:38 | -29.47415 | 166.54965 | 42140 ft | 439 kts | 256° |
| 2026-04-26 14:38 | -29.49418 | 166.48339 | 42140 ft | 439 kts | 256° |
| 2026-04-26 14:39 | -29.51418 | 166.41710 | 42140 ft | 440 kts | 256° |
| 2026-04-26 14:39 | -29.53417 | 166.35067 | 42140 ft | 440 kts | 256° |
| 2026-04-26 14:40 | -29.55415 | 166.28418 | 42141 ft | 440 kts | 256° |
| 2026-04-26 14:40 | -29.57412 | 166.21758 | 42141 ft | 441 kts | 256° |
| 2026-04-26 14:41 | -29.59405 | 166.15095 | 42151 ft | 441 kts | 256° |
| 2026-04-26 14:41 | -29.61400 | 166.08413 | 42152 ft | 442 kts | 256° |
| 2026-04-26 14:42 | -29.63394 | 166.01720 | 42154 ft | 443 kts | 256° |
| 2026-04-26 14:42 | -29.65385 | 165.95023 | 42155 ft | 443 kts | 256° |
| 2026-04-26 14:43 | -29.67373 | 165.88324 | 42156 ft | 443 kts | 256° |
| 2026-04-26 14:43 | -29.69347 | 165.81657 | 42157 ft | 443 kts | 256° |
| 2026-04-26 14:44 | -29.71330 | 165.74946 | 42158 ft | 443 kts | 256° |
| 2026-04-26 14:44 | -29.73313 | 165.68218 | 42159 ft | 443 kts | 256° |
| 2026-04-26 14:45 | -29.75288 | 165.61507 | 42157 ft | 443 kts | 256° |
| 2026-04-26 14:45 | -29.77259 | 165.54792 | 42158 ft | 443 kts | 256° |
| 2026-04-26 14:46 | -29.79227 | 165.48075 | 42159 ft | 443 kts | 256° |
| 2026-04-26 14:46 | -29.81185 | 165.41380 | 42160 ft | 444 kts | 256° |
| 2026-04-26 14:47 | -29.83150 | 165.34644 | 42161 ft | 443 kts | 256° |
| 2026-04-26 14:47 | -29.85111 | 165.27907 | 42162 ft | 444 kts | 256° |
| 2026-04-26 14:48 | -29.87070 | 165.21165 | 42163 ft | 444 kts | 256° |
| 2026-04-26 14:48 | -29.89027 | 165.14413 | 42165 ft | 444 kts | 256° |
| 2026-04-26 14:49 | -29.90983 | 165.07652 | 42166 ft | 444 kts | 256° |
| 2026-04-26 14:49 | -29.92604 | 165.02035 | 42167 ft | 444 kts | 256° |
| 2026-04-26 14:50 | -29.94551 | 164.95277 | 42168 ft | 445 kts | 256° |
| 2026-04-26 14:50 | -29.96498 | 164.88504 | 42169 ft | 445 kts | 256° |
| 2026-04-26 14:51 | -29.98444 | 164.81720 | 42171 ft | 445 kts | 255° |
| 2026-04-26 14:51 | -30.00386 | 164.74936 | 42172 ft | 445 kts | 255° |
| 2026-04-26 14:52 | -30.02329 | 164.68131 | 42173 ft | 448 kts | 255° |
| 2026-04-26 14:52 | -30.04280 | 164.61288 | 42175 ft | 450 kts | 255° |
| 2026-04-26 14:53 | -30.06230 | 164.54430 | 42176 ft | 449 kts | 255° |
| 2026-04-26 14:53 | -30.08172 | 164.47584 | 42178 ft | 449 kts | 255° |
| 2026-04-26 14:54 | -30.10112 | 164.40732 | 42179 ft | 449 kts | 255° |
| 2026-04-26 14:54 | -30.12046 | 164.33886 | 42180 ft | 449 kts | 255° |
| 2026-04-26 14:55 | -30.13980 | 164.27024 | 42182 ft | 449 kts | 255° |
| 2026-04-26 14:55 | -30.15908 | 164.20167 | 42183 ft | 449 kts | 255° |
| 2026-04-26 14:56 | -30.17833 | 164.13307 | 42185 ft | 449 kts | 255° |
| 2026-04-26 14:56 | -30.19755 | 164.06442 | 42186 ft | 449 kts | 255° |
| 2026-04-26 14:57 | -30.21672 | 163.99576 | 42188 ft | 449 kts | 255° |
| 2026-04-26 14:57 | -30.23588 | 163.92704 | 42190 ft | 449 kts | 255° |
| 2026-04-26 14:58 | -30.25501 | 163.85821 | 42191 ft | 450 kts | 255° |
| 2026-04-26 14:58 | -30.27412 | 163.78935 | 42193 ft | 450 kts | 255° |
| 2026-04-26 14:59 | -30.29308 | 163.72083 | 42194 ft | 450 kts | 255° |
| 2026-04-26 14:59 | -30.31212 | 163.65192 | 42196 ft | 450 kts | 255° |
| 2026-04-26 15:00 | -30.33117 | 163.58277 | 42197 ft | 451 kts | 255° |
| 2026-04-26 15:00 | -30.35019 | 163.51356 | 42199 ft | 451 kts | 255° |
| 2026-04-26 15:01 | -30.36922 | 163.44417 | 42201 ft | 452 kts | 255° |
| 2026-04-26 15:01 | -30.38811 | 163.37516 | 42202 ft | 452 kts | 255° |
| 2026-04-26 15:02 | -30.40727 | 163.30586 | 42204 ft | 452 kts | 255° |
| 2026-04-26 15:02 | -30.42623 | 163.23631 | 42206 ft | 453 kts | 255° |
| 2026-04-26 15:03 | -30.44507 | 163.16664 | 42207 ft | 453 kts | 255° |
| 2026-04-26 15:03 | -30.46389 | 163.09685 | 42209 ft | 454 kts | 255° |
| 2026-04-26 15:04 | -30.48275 | 163.02694 | 42210 ft | 455 kts | 255° |
| 2026-04-26 15:04 | -30.50188 | 162.95704 | 42212 ft | 455 kts | 254° |
| 2026-04-26 15:05 | -30.52157 | 162.88734 | 42213 ft | 455 kts | 254° |
| 2026-04-26 15:05 | -30.54114 | 162.81757 | 42215 ft | 455 kts | 254° |
| 2026-04-26 15:06 | -30.56065 | 162.74765 | 42216 ft | 455 kts | 254° |
| 2026-04-26 15:06 | -30.58008 | 162.67775 | 42218 ft | 456 kts | 254° |
| 2026-04-26 15:07 | -30.60951 | 162.57276 | 42221 ft | 456 kts | 254° |
| 2026-04-26 15:07 | -30.62922 | 162.50285 | 42222 ft | 456 kts | 254° |
| 2026-04-26 15:08 | -30.64877 | 162.43282 | 42223 ft | 456 kts | 254° |
| 2026-04-26 15:08 | -30.66823 | 162.36274 | 42225 ft | 456 kts | 254° |
| 2026-04-26 15:09 | -30.68754 | 162.29294 | 42226 ft | 457 kts | 254° |
| 2026-04-26 15:09 | -30.70692 | 162.22268 | 42228 ft | 457 kts | 254° |
| 2026-04-26 15:10 | -30.72314 | 162.16375 | 42229 ft | 457 kts | 254° |
| 2026-04-26 15:10 | -30.74558 | 162.08200 | 42230 ft | 457 kts | 254° |
| 2026-04-26 15:11 | -30.76487 | 162.01159 | 42232 ft | 457 kts | 254° |
| 2026-04-26 15:11 | -30.78412 | 161.94111 | 42233 ft | 458 kts | 254° |
| 2026-04-26 15:12 | -30.80328 | 161.87081 | 42239 ft | 459 kts | 254° |
| 2026-04-26 15:12 | -30.82265 | 161.79958 | 42240 ft | 459 kts | 254° |
| 2026-04-26 15:13 | -30.84174 | 161.72919 | 42241 ft | 459 kts | 254° |
| 2026-04-26 15:13 | -30.86095 | 161.65821 | 42242 ft | 460 kts | 254° |
| 2026-04-26 15:14 | -30.88015 | 161.58707 | 42243 ft | 460 kts | 254° |
| 2026-04-26 15:14 | -30.89932 | 161.51588 | 42244 ft | 461 kts | 254° |
| 2026-04-26 15:15 | -30.91841 | 161.44482 | 42242 ft | 458 kts | 255° |
| 2026-04-26 15:15 | -30.93732 | 161.37425 | 42243 ft | 454 kts | 255° |
| 2026-04-26 15:16 | -30.95608 | 161.30407 | 42244 ft | 454 kts | 255° |
| 2026-04-26 15:16 | -30.97481 | 161.23383 | 42246 ft | 455 kts | 255° |
| 2026-04-26 15:17 | -30.99042 | 161.17518 | 42246 ft | 456 kts | 255° |
| 2026-04-26 15:17 | -31.01234 | 161.09261 | 42247 ft | 456 kts | 255° |
| 2026-04-26 15:18 | -31.03107 | 161.02184 | 42248 ft | 457 kts | 255° |
| 2026-04-26 15:18 | -31.04980 | 160.95097 | 42249 ft | 457 kts | 254° |
| 2026-04-26 15:19 | -31.06847 | 160.88009 | 42250 ft | 457 kts | 255° |
| 2026-04-26 15:19 | -31.08711 | 160.80913 | 42251 ft | 458 kts | 255° |
| 2026-04-26 15:20 | -31.10578 | 160.73790 | 42252 ft | 458 kts | 255° |
| 2026-04-26 15:20 | -31.12423 | 160.66733 | 42252 ft | 459 kts | 255° |
| 2026-04-26 15:21 | -31.14285 | 160.59594 | 42253 ft | 459 kts | 255° |
| 2026-04-26 15:21 | -31.16144 | 160.52451 | 42253 ft | 460 kts | 255° |
| 2026-04-26 15:22 | -31.17999 | 160.45307 | 42254 ft | 460 kts | 254° |
| 2026-04-26 15:22 | -31.19854 | 160.38147 | 42255 ft | 461 kts | 254° |
| 2026-04-26 15:23 | -31.21707 | 160.30972 | 42255 ft | 462 kts | 254° |
| 2026-04-26 15:23 | -31.23559 | 160.23783 | 42256 ft | 462 kts | 254° |
| 2026-04-26 15:24 | -31.25408 | 160.16582 | 42256 ft | 462 kts | 254° |
| 2026-04-26 15:24 | -31.27253 | 160.09381 | 42257 ft | 463 kts | 254° |
| 2026-04-26 15:25 | -31.28786 | 160.03386 | 42257 ft | 463 kts | 254° |
| 2026-04-26 15:25 | -31.30939 | 159.94942 | 42257 ft | 464 kts | 253° |
| 2026-04-26 15:26 | -31.32782 | 159.87693 | 42258 ft | 465 kts | 253° |
| 2026-04-26 15:26 | -31.34621 | 159.80440 | 42258 ft | 465 kts | 253° |
| 2026-04-26 15:27 | -31.36457 | 159.73183 | 42258 ft | 465 kts | 254° |
| 2026-04-26 15:27 | -31.38290 | 159.65917 | 42259 ft | 465 kts | 254° |
| 2026-04-26 15:28 | -31.40107 | 159.58694 | 42259 ft | 466 kts | 254° |
| 2026-04-26 15:28 | -31.41934 | 159.51412 | 42259 ft | 467 kts | 254° |
| 2026-04-26 15:29 | -31.43760 | 159.44118 | 42259 ft | 467 kts | 254° |
| 2026-04-26 15:30 | -31.47425 | 159.29520 | 42259 ft | 467 kts | 254° |
| 2026-04-26 15:30 | -31.49229 | 159.22209 | 42259 ft | 467 kts | 254° |
| 2026-04-26 15:31 | -31.51935 | 159.11225 | 42260 ft | 468 kts | 254° |
| 2026-04-26 15:32 | -31.54559 | 159.02843 | 42259 ft | 470 kts | 246° |
| 2026-04-26 15:32 | -31.58517 | 158.93748 | 42259 ft | 471 kts | 243° |
| 2026-04-26 15:33 | -31.61531 | 158.86910 | 42260 ft | 472 kts | 244° |
| 2026-04-26 15:33 | -31.64486 | 158.80028 | 42259 ft | 472 kts | 245° |
| 2026-04-26 15:34 | -31.67401 | 158.73169 | 42260 ft | 473 kts | 245° |
| 2026-04-26 15:34 | -31.70359 | 158.66263 | 42259 ft | 473 kts | 244° |
| 2026-04-26 15:35 | -31.73319 | 158.59341 | 42260 ft | 474 kts | 245° |
| 2026-04-26 15:35 | -31.76263 | 158.52405 | 42260 ft | 475 kts | 245° |
| 2026-04-26 15:36 | -31.79205 | 158.45444 | 42260 ft | 476 kts | 245° |
| 2026-04-26 15:36 | -31.81652 | 158.39639 | 42260 ft | 476 kts | 245° |
| 2026-04-26 15:37 | -31.84593 | 158.32649 | 42260 ft | 477 kts | 245° |
| 2026-04-26 15:37 | -31.87532 | 158.25646 | 42260 ft | 477 kts | 245° |
| 2026-04-26 15:38 | -31.90468 | 158.18639 | 42260 ft | 478 kts | 245° |
| 2026-04-26 15:38 | -31.93404 | 158.11618 | 42260 ft | 478 kts | 245° |
| 2026-04-26 15:39 | -31.96340 | 158.04583 | 42260 ft | 478 kts | 245° |
| 2026-04-26 15:39 | -31.98775 | 157.98737 | 42260 ft | 478 kts | 245° |
| 2026-04-26 15:40 | -32.02197 | 157.90505 | 42261 ft | 478 kts | 245° |
| 2026-04-26 15:40 | -32.05122 | 157.83455 | 42261 ft | 479 kts | 245° |
| 2026-04-26 15:41 | -32.08042 | 157.76403 | 42261 ft | 478 kts | 245° |
| 2026-04-26 15:41 | -32.10955 | 157.69353 | 42261 ft | 478 kts | 245° |
| 2026-04-26 15:42 | -32.13869 | 157.62286 | 42261 ft | 479 kts | 245° |
| 2026-04-26 15:42 | -32.16777 | 157.55223 | 42261 ft | 479 kts | 245° |
| 2026-04-26 15:43 | -32.19691 | 157.48128 | 42261 ft | 480 kts | 245° |
| 2026-04-26 15:44 | -32.24033 | 157.37531 | 42261 ft | 480 kts | 245° |
| 2026-04-26 15:44 | -32.28384 | 157.26881 | 42262 ft | 480 kts | 245° |
| 2026-04-26 15:45 | -32.32734 | 157.16199 | 42262 ft | 481 kts | 245° |
| 2026-04-26 15:46 | -32.37078 | 157.05501 | 42263 ft | 481 kts | 245° |
| 2026-04-26 15:46 | -32.39480 | 156.99572 | 42262 ft | 481 kts | 245° |
| 2026-04-26 15:47 | -32.44293 | 156.87660 | 42263 ft | 481 kts | 245° |
| 2026-04-26 15:48 | -32.47177 | 156.80502 | 42263 ft | 481 kts | 245° |
| 2026-04-26 15:48 | -32.50058 | 156.73340 | 42263 ft | 481 kts | 245° |
| 2026-04-26 15:49 | -32.52936 | 156.66167 | 42264 ft | 481 kts | 245° |
| 2026-04-26 15:49 | -32.55789 | 156.59044 | 42264 ft | 481 kts | 245° |
| 2026-04-26 15:50 | -32.58654 | 156.51875 | 42264 ft | 481 kts | 245° |
| 2026-04-26 15:50 | -32.61519 | 156.44692 | 42264 ft | 481 kts | 245° |
| 2026-04-26 15:51 | -32.64381 | 156.37501 | 42265 ft | 482 kts | 245° |
| 2026-04-26 15:51 | -32.67239 | 156.30306 | 42265 ft | 482 kts | 245° |
| 2026-04-26 15:52 | -32.70089 | 156.23114 | 42265 ft | 482 kts | 245° |
| 2026-04-26 15:52 | -32.72943 | 156.15901 | 42266 ft | 483 kts | 245° |
| 2026-04-26 15:53 | -32.75794 | 156.08678 | 42266 ft | 483 kts | 245° |
| 2026-04-26 15:53 | -32.78619 | 156.01506 | 42266 ft | 483 kts | 245° |
| 2026-04-26 15:54 | -32.81462 | 155.94274 | 42267 ft | 483 kts | 245° |
| 2026-04-26 15:54 | -32.84303 | 155.87030 | 42267 ft | 483 kts | 245° |
| 2026-04-26 15:55 | -32.87140 | 155.79783 | 42266 ft | 483 kts | 245° |
| 2026-04-26 15:55 | -32.89972 | 155.72532 | 42265 ft | 483 kts | 245° |
| 2026-04-26 15:56 | -32.92803 | 155.65269 | 42266 ft | 483 kts | 245° |
| 2026-04-26 15:56 | -32.95627 | 155.58008 | 42266 ft | 484 kts | 245° |
| 2026-04-26 15:57 | -32.98456 | 155.50720 | 42266 ft | 485 kts | 245° |
| 2026-04-26 15:57 | -33.01260 | 155.43479 | 42267 ft | 485 kts | 245° |
| 2026-04-26 15:58 | -33.04098 | 155.36191 | 42267 ft | 485 kts | 245° |
| 2026-04-26 15:58 | -33.06919 | 155.28898 | 42278 ft | 485 kts | 245° |
| 2026-04-26 15:59 | -33.09721 | 155.21588 | 42280 ft | 485 kts | 245° |
| 2026-04-26 15:59 | -33.12519 | 155.14271 | 42280 ft | 485 kts | 245° |
| 2026-04-26 16:00 | -33.15315 | 155.06958 | 42280 ft | 485 kts | 245° |
| 2026-04-26 16:00 | -33.18116 | 154.99643 | 42281 ft | 485 kts | 245° |
| 2026-04-26 16:01 | -33.20920 | 154.92319 | 42281 ft | 485 kts | 245° |
| 2026-04-26 16:01 | -33.23715 | 154.84987 | 42282 ft | 485 kts | 246° |
| 2026-04-26 16:02 | -33.26504 | 154.77649 | 42282 ft | 485 kts | 246° |
| 2026-04-26 16:02 | -33.29285 | 154.70314 | 42283 ft | 485 kts | 246° |
| 2026-04-26 16:03 | -33.32096 | 154.62974 | 42283 ft | 485 kts | 245° |
| 2026-04-26 16:03 | -33.34891 | 154.55688 | 42283 ft | 485 kts | 245° |
| 2026-04-26 16:04 | -33.37704 | 154.48293 | 42284 ft | 485 kts | 246° |
| 2026-04-26 16:04 | -33.40489 | 154.40937 | 42284 ft | 485 kts | 246° |
| 2026-04-26 16:05 | -33.43252 | 154.33616 | 42284 ft | 485 kts | 246° |
| 2026-04-26 16:05 | -33.46042 | 154.26203 | 42285 ft | 485 kts | 246° |
| 2026-04-26 16:06 | -33.48794 | 154.18877 | 42285 ft | 486 kts | 246° |
| 2026-04-26 16:06 | -33.51561 | 154.11496 | 42285 ft | 486 kts | 246° |
| 2026-04-26 16:07 | -33.54324 | 154.04106 | 42285 ft | 486 kts | 246° |
| 2026-04-26 16:07 | -33.57083 | 153.96712 | 42286 ft | 486 kts | 246° |
| 2026-04-26 16:08 | -33.59839 | 153.89309 | 42286 ft | 486 kts | 246° |
| 2026-04-26 16:08 | -33.62589 | 153.81903 | 42286 ft | 486 kts | 246° |
| 2026-04-26 16:09 | -33.65339 | 153.74483 | 42286 ft | 486 kts | 246° |
| 2026-04-26 16:09 | -33.68066 | 153.67110 | 42230 ft | 476 kts | 246° |
| 2026-04-26 16:09 | -33.69398 | 153.63502 | 41899 ft | 469 kts | 246° |
| 2026-04-26 16:10 | -33.70717 | 153.59923 | 41209 ft | 470 kts | 246° |
| 2026-04-26 16:10 | -33.72052 | 153.56299 | 40253 ft | 477 kts | 246° |
| 2026-04-26 16:10 | -33.73393 | 153.52655 | 39666 ft | 475 kts | 246° |
| 2026-04-26 16:10 | -33.74727 | 153.49024 | 39005 ft | 474 kts | 245° |
| 2026-04-26 16:11 | -33.76056 | 153.45403 | 38322 ft | 474 kts | 245° |
| 2026-04-26 16:11 | -33.77386 | 153.41776 | 37629 ft | 474 kts | 245° |
| 2026-04-26 16:11 | -33.78715 | 153.38150 | 36927 ft | 474 kts | 245° |
| 2026-04-26 16:11 | -33.80042 | 153.34525 | 36226 ft | 473 kts | 245° |
| 2026-04-26 16:12 | -33.81363 | 153.30910 | 35561 ft | 472 kts | 245° |
| 2026-04-26 16:12 | -33.82680 | 153.27302 | 34885 ft | 471 kts | 245° |
| 2026-04-26 16:12 | -33.85296 | 153.20125 | 33715 ft | 464 kts | 245° |
| 2026-04-26 16:13 | -33.86585 | 153.16583 | 33168 ft | 460 kts | 245° |
| 2026-04-26 16:13 | -33.87848 | 153.13111 | 32634 ft | 457 kts | 245° |
| 2026-04-26 16:13 | -33.89115 | 153.09621 | 32098 ft | 453 kts | 245° |
| 2026-04-26 16:13 | -33.90370 | 153.06162 | 31564 ft | 450 kts | 245° |
| 2026-04-26 16:14 | -33.91617 | 153.02719 | 31030 ft | 446 kts | 245° |
| 2026-04-26 16:14 | -33.92852 | 152.99307 | 30499 ft | 443 kts | 245° |
| 2026-04-26 16:14 | -33.95296 | 152.92547 | 29403 ft | 438 kts | 245° |
| 2026-04-26 16:15 | -33.96521 | 152.89203 | 28846 ft | 435 kts | 245° |
| 2026-04-26 16:15 | -33.97731 | 152.85881 | 28289 ft | 432 kts | 245° |
| 2026-04-26 16:15 | -33.98923 | 152.82573 | 27732 ft | 429 kts | 245° |
| 2026-04-26 16:16 | -34.01273 | 152.76015 | 26654 ft | 423 kts | 246° |
| 2026-04-26 16:16 | -34.02432 | 152.72770 | 26127 ft | 420 kts | 246° |
| 2026-04-26 16:16 | -34.03583 | 152.69545 | 25599 ft | 417 kts | 246° |
| 2026-04-26 16:16 | -34.04724 | 152.66345 | 25070 ft | 414 kts | 246° |
| 2026-04-26 16:17 | -34.05859 | 152.63165 | 24542 ft | 411 kts | 246° |
| 2026-04-26 16:17 | -34.06954 | 152.59998 | 24014 ft | 407 kts | 250° |
| 2026-04-26 16:17 | -34.07664 | 152.56711 | 23491 ft | 405 kts | 260° |
| 2026-04-26 16:17 | -34.07884 | 152.53342 | 22958 ft | 402 kts | 269° |
| 2026-04-26 16:18 | -34.07756 | 152.49985 | 22429 ft | 400 kts | 275° |
| 2026-04-26 16:18 | -34.07081 | 152.43367 | 21395 ft | 395 kts | 278° |
| 2026-04-26 16:19 | -34.06411 | 152.36828 | 20376 ft | 390 kts | 277° |
| 2026-04-26 16:19 | -34.06094 | 152.33582 | 19870 ft | 388 kts | 277° |
| 2026-04-26 16:19 | -34.05578 | 152.28232 | 19034 ft | 384 kts | 277° |
| 2026-04-26 16:20 | -34.05167 | 152.23970 | 18369 ft | 381 kts | 277° |
| 2026-04-26 16:20 | -34.04557 | 152.17654 | 17386 ft | 377 kts | 277° |
| 2026-04-26 16:20 | -34.04255 | 152.14526 | 16882 ft | 375 kts | 277° |
| 2026-04-26 16:21 | -34.03956 | 152.11426 | 16142 ft | 380 kts | 277° |
| 2026-04-26 16:21 | -34.03651 | 152.08261 | 15622 ft | 378 kts | 277° |
| 2026-04-26 16:21 | -34.03349 | 152.05124 | 15141 ft | 374 kts | 276° |
| 2026-04-26 16:21 | -34.03045 | 152.02028 | 14658 ft | 371 kts | 277° |
| 2026-04-26 16:22 | -34.02735 | 151.98956 | 14167 ft | 368 kts | 277° |
| 2026-04-26 16:22 | -34.02423 | 151.95911 | 13674 ft | 364 kts | 277° |
| 2026-04-26 16:22 | -34.02112 | 151.92888 | 13179 ft | 361 kts | 277° |
| 2026-04-26 16:22 | -34.01803 | 151.89899 | 12688 ft | 358 kts | 277° |
| 2026-04-26 16:23 | -34.01496 | 151.86930 | 12184 ft | 355 kts | 277° |
| 2026-04-26 16:23 | -34.01192 | 151.84003 | 11892 ft | 346 kts | 276° |
| 2026-04-26 16:23 | -34.00999 | 151.82133 | 11871 ft | 335 kts | 276° |
| 2026-04-26 16:23 | -34.00718 | 151.79418 | 11802 ft | 319 kts | 276° |
| 2026-04-26 16:24 | -34.00451 | 151.76828 | 11668 ft | 307 kts | 276° |
| 2026-04-26 16:24 | -34.00197 | 151.74295 | 11334 ft | 303 kts | 276° |
| 2026-04-26 16:24 | -33.99939 | 151.71759 | 10807 ft | 306 kts | 276° |
| 2026-04-26 16:24 | -33.99677 | 151.69220 | 10405 ft | 305 kts | 276° |
| 2026-04-26 16:25 | -33.99414 | 151.66696 | 10055 ft | 301 kts | 276° |
| 2026-04-26 16:25 | -33.99158 | 151.64242 | 9944 ft | 290 kts | 276° |
| 2026-04-26 16:25 | -33.98910 | 151.61854 | 9636 ft | 286 kts | 276° |
| 2026-04-26 16:25 | -33.98661 | 151.59474 | 9261 ft | 286 kts | 276° |
| 2026-04-26 16:26 | -33.98415 | 151.57105 | 8965 ft | 283 kts | 276° |
| 2026-04-26 16:26 | -33.98179 | 151.54773 | 8746 ft | 278 kts | 276° |
| 2026-04-26 16:26 | -33.97940 | 151.52463 | 8539 ft | 279 kts | 276° |
| 2026-04-26 16:26 | -33.97699 | 151.50155 | 8333 ft | 275 kts | 276° |
| 2026-04-26 16:27 | -33.97458 | 151.47871 | 8132 ft | 275 kts | 277° |
| 2026-04-26 16:27 | -33.97217 | 151.45590 | 7931 ft | 274 kts | 277° |
| 2026-04-26 16:27 | -33.96977 | 151.43322 | 7733 ft | 272 kts | 276° |
| 2026-04-26 16:27 | -33.96738 | 151.41058 | 7536 ft | 272 kts | 277° |
| 2026-04-26 16:28 | -33.96500 | 151.38806 | 7340 ft | 270 kts | 277° |
| 2026-04-26 16:28 | -33.96268 | 151.36570 | 7144 ft | 269 kts | 276° |
| 2026-04-26 16:28 | -33.96044 | 151.34331 | 6948 ft | 268 kts | 276° |
| 2026-04-26 16:28 | -33.95819 | 151.32110 | 6755 ft | 267 kts | 276° |
| 2026-04-26 16:29 | -33.95593 | 151.29920 | 6564 ft | 266 kts | 276° |
| 2026-04-26 16:29 | -33.95365 | 151.27716 | 6371 ft | 265 kts | 276° |
| 2026-04-26 16:29 | -33.95137 | 151.25519 | 6179 ft | 264 kts | 276° |
| 2026-04-26 16:29 | -33.94906 | 151.23304 | 5986 ft | 263 kts | 276° |
| 2026-04-26 16:30 | -33.94683 | 151.21155 | 5799 ft | 262 kts | 276° |
| 2026-04-26 16:30 | -33.94455 | 151.18975 | 5609 ft | 261 kts | 277° |
| 2026-04-26 16:30 | -33.94229 | 151.16808 | 5446 ft | 260 kts | 277° |
| 2026-04-26 16:30 | -33.94014 | 151.14663 | 5395 ft | 256 kts | 277° |
| 2026-04-26 16:31 | -33.93902 | 151.12540 | 5124 ft | 251 kts | 265° |
| 2026-04-26 16:31 | -33.94413 | 151.10574 | 5057 ft | 250 kts | 244° |
| 2026-04-26 16:31 | -33.95288 | 151.08728 | 4966 ft | 256 kts | 240° |
| 2026-04-26 16:31 | -33.96201 | 151.06875 | 4989 ft | 258 kts | 240° |
| 2026-04-26 16:32 | -33.97128 | 151.05012 | 4997 ft | 260 kts | 237° |
| 2026-04-26 16:32 | -33.97881 | 151.03896 | 5003 ft | 259 kts | 223° |
| 2026-04-26 16:32 | -34.00065 | 151.02750 | 5005 ft | 261 kts | 187° |
| 2026-04-26 16:32 | -34.01868 | 151.02857 | 4996 ft | 260 kts | 174° |
| 2026-04-26 16:33 | -34.03670 | 151.03148 | 4863 ft | 263 kts | 173° |
| 2026-04-26 16:33 | -34.05476 | 151.03436 | 4617 ft | 260 kts | 173° |
| 2026-04-26 16:33 | -34.07263 | 151.03721 | 4368 ft | 259 kts | 173° |
| 2026-04-26 16:33 | -34.09053 | 151.04014 | 4116 ft | 258 kts | 171° |
| 2026-04-26 16:34 | -34.10810 | 151.04478 | 3866 ft | 258 kts | 166° |
| 2026-04-26 16:34 | -34.12548 | 151.05019 | 3616 ft | 257 kts | 166° |
| 2026-04-26 16:34 | -34.14262 | 151.05544 | 3368 ft | 258 kts | 166° |
| 2026-04-26 16:34 | -34.15995 | 151.06071 | 3117 ft | 256 kts | 166° |
| 2026-04-26 16:35 | -34.17715 | 151.06592 | 3017 ft | 255 kts | 166° |
| 2026-04-26 16:35 | -34.19441 | 151.07113 | 3001 ft | 256 kts | 166° |
| 2026-04-26 16:35 | -34.21169 | 151.07636 | 3004 ft | 257 kts | 166° |
| 2026-04-26 16:35 | -34.22901 | 151.08159 | 3004 ft | 257 kts | 166° |
| 2026-04-26 16:36 | -34.24636 | 151.08684 | 3005 ft | 257 kts | 166° |
| 2026-04-26 16:36 | -34.26323 | 151.09356 | 3005 ft | 255 kts | 152° |
| 2026-04-26 16:36 | -34.27630 | 151.10776 | 3006 ft | 256 kts | 124° |
| 2026-04-26 16:36 | -34.28217 | 151.12784 | 3003 ft | 254 kts | 96° |
| 2026-04-26 16:37 | -34.27942 | 151.14859 | 3005 ft | 251 kts | 67° |
| 2026-04-26 16:37 | -34.26915 | 151.16530 | 3019 ft | 248 kts | 43° |
| 2026-04-26 16:37 | -34.25515 | 151.17732 | 3013 ft | 247 kts | 30° |
| 2026-04-26 16:37 | -34.24028 | 151.18772 | 2992 ft | 247 kts | 30° |
| 2026-04-26 16:38 | -34.22539 | 151.19805 | 2999 ft | 247 kts | 29° |
| 2026-04-26 16:38 | -34.21048 | 151.20834 | 3000 ft | 246 kts | 29° |
| 2026-04-26 16:38 | -34.19581 | 151.21848 | 2997 ft | 237 kts | 29° |
| 2026-04-26 16:38 | -34.18174 | 151.22761 | 2996 ft | 222 kts | 23° |
| 2026-04-26 16:39 | -34.16709 | 151.23224 | 2991 ft | 217 kts | 6° |
| 2026-04-26 16:39 | -34.15217 | 151.23132 | 2888 ft | 214 kts | 352° |
| 2026-04-26 16:39 | -34.13765 | 151.22766 | 2710 ft | 213 kts | 347° |
| 2026-04-26 16:39 | -34.12351 | 151.22330 | 2553 ft | 204 kts | 346° |
| 2026-04-26 16:40 | -34.11034 | 151.21929 | 2405 ft | 186 kts | 346° |
| 2026-04-26 16:40 | -34.09839 | 151.21582 | 2294 ft | 174 kts | 347° |
| 2026-04-26 16:40 | -34.08629 | 151.21250 | 2186 ft | 178 kts | 348° |
| 2026-04-26 16:40 | -34.07455 | 151.20938 | 2056 ft | 165 kts | 348° |
| 2026-04-26 16:41 | -34.06389 | 151.20658 | 1955 ft | 148 kts | 348° |
| 2026-04-26 16:41 | -34.05390 | 151.20397 | 1850 ft | 144 kts | 348° |
| 2026-04-26 16:41 | -34.04444 | 151.20151 | 1673 ft | 136 kts | 348° |
| 2026-04-26 16:41 | -34.03531 | 151.19913 | 1446 ft | 132 kts | 348° |
| 2026-04-26 16:42 | -34.02650 | 151.19684 | 1263 ft | 131 kts | 348° |
| 2026-04-26 16:42 | -34.01745 | 151.19448 | 1089 ft | 131 kts | 348° |
| 2026-04-26 16:42 | -34.00854 | 151.19216 | 917 ft | 131 kts | 348° |
| 2026-04-26 16:42 | -33.99974 | 151.18977 | 747 ft | 131 kts | 347° |
| 2026-04-26 16:43 | -33.99090 | 151.18734 | 572 ft | 131 kts | 348° |
| 2026-04-26 16:43 | -33.98201 | 151.18514 | 395 ft | 130 kts | 349° |
| 2026-04-26 16:43 | -33.97317 | 151.18295 | 230 ft | 129 kts | 348° |
| 2026-04-26 16:43 | -33.96438 | 151.18070 | 69 ft | 129 kts | 348° |
| 2026-04-26 16:44 | -33.95623 | 151.17856 | 36 ft | 105 kts | 348° |
| 2026-04-26 16:44 | -33.95027 | 151.17702 | 35 ft | 70 kts | 348° |
| 2026-04-26 16:44 | -33.94666 | 151.17611 | 35 ft | 34 kts | 348° |
| 2026-04-26 16:44 | -33.94535 | 151.17547 | 35 ft | 13 kts | 313° |
| 2026-04-26 16:45 | -33.94462 | 151.17485 | 35 ft | 13 kts | 332° |
| 2026-04-26 16:45 | -33.94393 | 151.17427 | 35 ft | 12 kts | 316° |
| 2026-04-26 16:45 | -33.94336 | 151.17359 | 35 ft | 11 kts | 314° |
| 2026-04-26 16:45 | -33.94277 | 151.17308 | 35 ft | 10 kts | 343° |
| 2026-04-26 16:46 | -33.94209 | 151.17290 | 35 ft | 10 kts | 348° |
| 2026-04-26 16:46 | -33.94145 | 151.17273 | 35 ft | 9 kts | 344° |
| 2026-04-26 16:46 | -33.94085 | 151.17250 | 35 ft | 9 kts | 333° |
| 2026-04-26 16:46 | -33.94068 | 151.17218 | 35 ft | 4 kts | 277° |
| 2026-04-26 16:47 | -33.94080 | 151.17154 | 35 ft | 13 kts | 255° |
| 2026-04-26 16:47 | -33.94112 | 151.17010 | 35 ft | 21 kts | 256° |
| 2026-04-26 16:47 | -33.94148 | 151.16849 | 35 ft | 19 kts | 253° |
| 2026-04-26 16:47 | -33.94185 | 151.16698 | 35 ft | 18 kts | 254° |
| 2026-04-26 16:48 | -33.94219 | 151.16554 | 35 ft | 17 kts | 254° |
| 2026-04-26 16:48 | -33.94255 | 151.16419 | 35 ft | 16 kts | 252° |
| 2026-04-26 16:48 | -33.94256 | 151.16345 | 35 ft | 6 kts | 315° |
| 2026-04-26 16:48 | -33.94190 | 151.16315 | 35 ft | 13 kts | 342° |
| 2026-04-26 16:49 | -33.94105 | 151.16284 | 35 ft | 12 kts | 348° |
| 2026-04-26 16:49 | -33.94020 | 151.16289 | 35 ft | 12 kts | 8° |
| 2026-04-26 16:49 | -33.93940 | 151.16305 | 35 ft | 11 kts | 12° |
| 2026-04-26 16:49 | -33.93869 | 151.16335 | 35 ft | 11 kts | 48° |
| 2026-04-26 16:50 | -33.93871 | 151.16412 | 35 ft | 5 kts | 105° |
| 2026-04-26 16:50 | -33.93877 | 151.16455 | 35 ft | 5 kts | 98° |
| 2026-04-26 16:50 | -33.93880 | 151.16476 | 35 ft | 1 kts | 99° |
| 2026-04-26 16:50 | -33.93881 | 151.16482 | 35 ft | 0 kts | 99° |